Meteo Giornale » Osservazioni meteo Stati Uniti (USA) » Dayton General South
ore: 17:53 - Osservazioni Meteo Dayton General South
Lat. 39° 35' N Lon. 84° 13' W Alt. 293 metri s.l.m.
33 °C
Poco Nuvoloso
Temp. 24 Ore
22 °C
33 °C
Ovest
14.8 Km/h
Dew point 19 °C
Umidità 43 %
Visibilità 10 Km
Il sole sorge alle ore 07:05
Il sole tramonta alle ore 20:08
| Data e Ora | Cielo e Fenomeni | T °C | DP °C | Um. % | Pres. hPa | Vis. km | Vento km/h | |
|---|---|---|---|---|---|---|---|---|
| Oggi h: 17:53 | Poco Nuvoloso | 33 | 19 | 43 | 1017 | 10 | O 14.8 | |
| Oggi h: 16:53 | Sereno | 33 | 21 | 49 | 1017 | 10 | O/SO 14.8 | |
| Oggi h: 15:53 | Sereno | 33 | 21 | 49 | 1017 | 10 | SO 20.3 | |
| Oggi h: 14:53 | Sereno | 33 | 20 | 46 | 1018 | 10 | O 18.5 | |
| Oggi h: 13:53 | Sereno | 32 | 21 | 52 | 1018 | 10 | SO 13 | |
| Oggi h: 12:53 | Sereno | 31 | 22 | 58 | 1019 | 10 | SO 16.7 | |
| Oggi h: 11:53 | Sereno | 30 | 22 | 62 | 1019 | 10 | O 20.3 | |
| Oggi h: 10:53 | Sereno | 29 | 22 | 66 | 1019 | 10 | O/SO 18.5 | |
| Oggi h: 09:53 | Sereno | 27 | 21 | 69 | 1019 | 10 | O/SO 14.8 | |
| Oggi h: 08:53 | Poco Nuvoloso | 25 | 21 | 78 | 1019 | 10 | SO 9.3 | |
| Oggi h: 07:53 | Sereno | 22 | 21 | 94 | 1019 | 14 | S 7.4 | |
| Oggi h: 06:53 | Poco Nuvoloso | 22 | 21 | 94 | 1018 | 14 | S 9.3 | |
| Oggi h: 05:53 | Sereno | 22 | 21 | 94 | 1018 | 14 | S/SO 9.3 | |
| Oggi h: 04:53 | Sereno | 22 | 21 | 94 | 1018 | 14 | N 5.5 | |
| Oggi h: 03:53 | Sereno | 23 | 21 | 88 | 1017 | 10 | S 7.4 | |
| Oggi h: 02:53 | Sereno | 23 | 21 | 88 | 1017 | 10 | N 0 | |
| Oggi h: 01:53 | Sereno | 24 | 21 | 83 | 1017 | 10 | S 9.3 | |
| Oggi h: 00:53 | Sereno | 24 | 22 | 88 | 1017 | 10 | S 11.1 | |
| Ieri h: 23:53 | Sereno | 24 | 21 | 83 | 1018 | 10 | S 11.1 | |
| Ieri h: 22:53 | Sereno | 25 | 21 | 78 | 1018 | 10 | S 7.4 | |
| Ieri h: 21:53 | Sereno | 26 | 21 | 73 | 1018 | 10 | N 0 | |
| Ieri h: 20:53 | Sereno | 27 | 22 | 74 | 1018 | 10 | N 0 | |
| Ieri h: 19:53 | Sereno | 30 | 21 | 58 | 1017 | 10 | N 0 | |
| Ieri h: 18:53 | Sereno | 31 | 21 | 55 | 1017 | 10 | O 7.4 | |



